Time;durP1;ratioP1;P1;durP2;ratioP2;P2;SDS_P1;SDS_P2;PMS_P1;PMS_P2;Temp;Humidity;BMP_temperature;BMP_pressure;BME280_temperature;BME280_humidity;BME280_pressure;Samples;Min_cycle;Max_cycle;Signal;HPM_P1;HPM_P2
2021/03/21 00:00:49;;;;;;;5.57;2.97;;;;;;;1.87;54.91;101047.59;5049358;28;20179;-71
2021/03/21 00:03:16;;;;;;;6.60;2.80;;;;;;;1.89;55.44;101047.66;5051281;28;20044;-71
2021/03/21 00:05:41;;;;;;;6.90;2.88;;;;;;;1.96;55.31;101034.94;5051048;28;20643;-71
2021/03/21 00:08:12;;;;;;;6.55;3.00;;;;;;;1.90;55.76;101036.41;5052797;28;20210;-71
2021/03/21 00:10:38;;;;;;;7.45;2.90;;;;;;;1.86;55.60;101029.28;5052387;28;20037;-71
2021/03/21 00:13:04;;;;;;;5.47;2.80;;;;;;;1.89;56.00;101021.63;5052501;28;20048;-71
2021/03/21 00:15:30;;;;;;;6.18;3.00;;;;;;;1.96;55.72;101019.31;5050378;28;20028;-71
2021/03/21 00:17:56;;;;;;;6.13;3.00;;;;;;;1.98;55.51;101020.22;5052322;28;20036;-71
2021/03/21 00:20:31;;;;;;;7.50;3.13;;;;;;;2.01;55.43;101018.56;5052155;28;20044;-71
2021/03/21 00:22:57;;;;;;;4.53;2.22;;;;;;;2.01;55.77;101011.63;5052473;28;20032;-71
2021/03/21 00:25:26;;;;;;;4.43;2.45;;;;;;;2.05;55.56;101008.31;5052068;28;20040;-71
2021/03/21 00:27:52;;;;;;;7.15;2.83;;;;;;;2.08;55.44;101011.03;5052139;28;20036;-70
2021/03/21 00:30:22;;;;;;;5.97;2.75;;;;;;;2.03;55.87;100996.97;5051971;28;20033;-71
2021/03/21 00:32:47;;;;;;;5.78;2.50;;;;;;;2.08;55.48;100992.81;5050794;28;20407;-71
2021/03/21 00:35:13;;;;;;;6.00;2.50;;;;;;;2.07;55.95;100980.63;5051657;28;20033;-71
2021/03/21 00:37:41;;;;;;;6.32;2.50;;;;;;;2.08;56.03;100971.09;5051963;28;20083;-71
2021/03/21 00:40:11;;;;;;;6.97;2.38;;;;;;;2.11;56.02;100979.91;5050621;28;20072;-71
2021/03/21 00:42:37;;;;;;;5.10;3.00;;;;;;;2.12;56.01;100968.66;5051763;28;20120;-71
2021/03/21 00:45:05;;;;;;;6.38;2.65;;;;;;;2.14;56.27;100966.97;5050356;28;20075;-71
2021/03/21 00:47:30;;;;;;;6.55;2.97;;;;;;;2.13;56.14;100959.13;5050428;28;20087;-71
2021/03/21 00:49:55;;;;;;;7.07;2.35;;;;;;;2.18;56.13;100958.44;5051462;28;20040;-71
2021/03/21 00:52:21;;;;;;;4.88;2.30;;;;;;;2.17;56.74;100954.09;5051991;28;20041;-71
2021/03/21 00:54:46;;;;;;;5.80;2.83;;;;;;;2.19;56.37;100948.91;5051594;28;20029;-71
2021/03/21 00:57:11;;;;;;;7.85;2.70;;;;;;;2.23;56.63;100944.69;5051426;28;20174;-71
2021/03/21 00:59:37;;;;;;;7.47;2.60;;;;;;;2.22;56.91;100935.13;5058642;28;20131;-71
2021/03/21 01:02:04;;;;;;;4.75;2.30;;;;;;;2.24;57.12;100930.84;5051542;28;20029;-71
2021/03/21 01:04:29;;;;;;;6.25;2.15;;;;;;;2.27;57.59;100941.38;5066851;28;20033;-71
2021/03/21 01:06:54;;;;;;;6.63;2.75;;;;;;;2.27;57.61;100941.38;5051241;28;20037;-71
2021/03/21 01:09:20;;;;;;;4.25;2.05;;;;;;;2.31;57.92;100927.63;5051390;28;20037;-71
2021/03/21 01:11:45;;;;;;;6.95;2.72;;;;;;;2.36;58.41;100920.84;5051244;28;20044;-71
2021/03/21 01:14:10;;;;;;;6.75;2.72;;;;;;;2.31;58.18;100920.69;5051406;28;20024;-71
2021/03/21 01:16:41;;;;;;;6.72;2.60;;;;;;;2.34;57.86;100904.28;5050982;28;20446;-71
2021/03/21 01:19:13;;;;;;;5.65;3.13;;;;;;;2.38;58.20;100922.69;5050734;28;20749;-71
2021/03/21 01:21:43;;;;;;;7.30;2.70;;;;;;;2.35;58.38;100913.84;5051300;28;20072;-71
2021/03/21 01:24:09;;;;;;;8.38;4.10;;;;;;;2.36;58.53;100913.91;5042997;28;20037;-71
2021/03/21 01:26:35;;;;;;;6.57;2.58;;;;;;;2.34;58.39;100904.28;5050944;28;20033;-71
2021/03/21 01:29:00;;;;;;;6.43;2.75;;;;;;;2.35;59.11;100899.09;5051035;28;20084;-71
2021/03/21 01:31:26;;;;;;;5.00;2.40;;;;;;;2.42;58.69;100895.88;5051208;28;20060;-71
2021/03/21 01:33:52;;;;;;;5.55;2.42;;;;;;;2.44;59.04;100882.91;5051154;28;20056;-71
2021/03/21 01:36:24;;;;;;;5.93;2.65;;;;;;;2.39;58.85;100874.94;5050910;28;20122;-71
2021/03/21 01:38:51;;;;;;;5.75;2.65;;;;;;;2.40;59.30;100875.81;5050894;28;20063;-71
2021/03/21 01:41:24;;;;;;;6.43;2.53;;;;;;;2.39;59.28;100861.03;5050657;28;20044;-71
2021/03/21 01:43:50;;;;;;;6.60;2.45;;;;;;;2.41;59.23;100856.72;5051675;28;20036;-71
2021/03/21 01:46:24;;;;;;;6.78;2.78;;;;;;;2.48;59.85;100855.22;5050803;28;20037;-71
2021/03/21 01:48:52;;;;;;;6.28;2.97;;;;;;;2.50;59.86;100857.03;5050655;28;20499;-71
2021/03/21 01:51:29;;;;;;;7.40;3.15;;;;;;;2.49;60.13;100844.88;5051006;28;20589;-71
2021/03/21 01:54:04;;;;;;;8.55;3.30;;;;;;;2.51;59.85;100840.56;5050967;28;20040;-71
2021/03/21 01:56:32;;;;;;;6.00;3.38;;;;;;;2.49;60.12;100834.44;5050769;28;20143;-71
2021/03/21 01:59:14;;;;;;;5.13;2.58;;;;;;;2.50;60.67;100825.78;5049536;28;20070;-71
2021/03/21 02:01:39;;;;;;;8.65;3.38;;;;;;;2.44;60.66;100819.47;5050888;28;20036;-71
2021/03/21 02:04:05;;;;;;;6.50;3.30;;;;;;;2.45;60.95;100821.25;5050803;28;20060;-71
2021/03/21 02:06:37;;;;;;;6.25;3.00;;;;;;;2.38;60.82;100822.78;5050661;28;20043;-71
2021/03/21 02:09:17;;;;;;;5.78;2.80;;;;;;;2.42;60.79;100822.06;5049393;28;20055;-70
2021/03/21 02:12:01;;;;;;;5.55;2.88;;;;;;;2.47;60.92;100804.84;5050673;28;20036;-71
2021/03/21 02:15:05;;;;;;;6.07;3.00;;;;;;;2.42;61.45;100801.22;5045018;28;20037;-71
2021/03/21 02:17:55;;;;;;;7.05;3.35;;;;;;;2.41;61.27;100794.22;5045583;28;20037;-71
2021/03/21 02:20:42;;;;;;;7.05;3.15;;;;;;;2.41;62.24;100804.63;5044009;28;20120;-71
2021/03/21 02:23:24;;;;;;;6.90;3.42;;;;;;;2.43;62.20;100800.38;5050751;28;20426;-71
2021/03/21 02:26:37;;;;;;;6.10;3.28;;;;;;;2.38;62.17;100789.81;5050421;28;20082;-71
2021/03/21 02:29:21;;;;;;;4.68;2.75;;;;;;;2.44;61.62;100796.03;4987001;28;20078;-71
2021/03/21 02:32:22;;;;;;;9.30;3.47;;;;;;;2.36;62.04;100791.50;5051235;28;20040;-71
2021/03/21 02:34:59;;;;;;;7.00;3.67;;;;;;;2.38;62.58;100779.41;5023827;28;20049;-71
2021/03/21 02:37:37;;;;;;;6.63;3.15;;;;;;;2.41;62.48;100773.38;5054497;28;20456;-71
2021/03/21 02:40:27;;;;;;;5.82;3.00;;;;;;;2.42;62.12;100764.75;5054107;28;20048;-71
2021/03/21 02:43:02;;;;;;;6.13;3.13;;;;;;;2.41;62.08;100756.06;5052666;28;20438;-71
2021/03/21 02:45:30;;;;;;;7.10;3.03;;;;;;;2.42;62.21;100754.31;5053975;28;20029;-71
2021/03/21 02:48:03;;;;;;;5.80;3.05;;;;;;;2.41;61.86;100745.63;5054047;28;20103;-71
2021/03/21 02:50:36;;;;;;;6.15;3.40;;;;;;;2.46;62.42;100739.66;5053922;28;20051;-71
2021/03/21 02:53:24;;;;;;;6.63;3.40;;;;;;;2.46;61.76;100737.94;5054029;28;20031;-71
2021/03/21 02:55:54;;;;;;;8.68;3.70;;;;;;;2.40;62.36;100723.00;5053595;28;20029;-71
2021/03/21 02:58:36;;;;;;;5.68;3.00;;;;;;;2.44;62.19;100724.00;5054082;28;20124;-71
2021/03/21 03:01:10;;;;;;;6.63;3.20;;;;;;;2.48;61.49;100718.03;5053873;28;20399;-71
2021/03/21 03:03:41;;;;;;;7.55;3.22;;;;;;;2.55;61.48;100719.97;5053705;28;20083;-71
2021/03/21 03:06:11;;;;;;;6.38;3.20;;;;;;;2.63;60.96;100712.38;5053481;28;20503;-71
2021/03/21 03:08:47;;;;;;;6.60;3.35;;;;;;;2.52;61.24;100706.00;5053641;28;20502;-71
2021/03/21 03:11:18;;;;;;;6.00;2.97;;;;;;;2.57;61.36;100696.59;5045963;28;20167;-71
2021/03/21 03:13:54;;;;;;;5.65;2.67;;;;;;;2.60;60.94;100687.13;5053579;28;20040;-71
2021/03/21 03:16:35;;;;;;;6.85;3.17;;;;;;;2.61;60.56;100678.47;5053338;28;20029;-71
2021/03/21 03:19:19;;;;;;;5.35;2.85;;;;;;;2.67;60.84;100688.16;5053434;28;20036;-71
2021/03/21 03:21:52;;;;;;;5.68;3.08;;;;;;;2.76;60.62;100677.13;5053515;28;20032;-71
2021/03/21 03:24:40;;;;;;;6.43;3.00;;;;;;;2.69;60.89;100667.38;5053417;28;20055;-71
2021/03/21 03:27:13;;;;;;;6.30;2.97;;;;;;;2.74;60.18;100671.88;5053143;28;20033;-71
2021/03/21 03:29:43;;;;;;;5.53;3.25;;;;;;;2.71;60.00;100666.56;5053224;28;20048;-71
2021/03/21 03:32:13;;;;;;;7.65;3.63;;;;;;;2.77;60.10;100658.91;5053161;28;20076;-71
2021/03/21 03:34:44;;;;;;;7.10;3.30;;;;;;;2.79;60.29;100661.56;5051923;28;20063;-71
2021/03/21 03:37:10;;;;;;;6.88;3.20;;;;;;;2.77;60.23;100656.31;5044697;28;20041;-71
2021/03/21 03:39:38;;;;;;;7.03;2.92;;;;;;;2.77;60.60;100658.03;5053059;28;20400;-71
2021/03/21 03:42:22;;;;;;;6.97;3.33;;;;;;;2.82;60.15;100646.00;5052423;28;20464;-71
2021/03/21 03:45:04;;;;;;;6.90;3.70;;;;;;;2.86;60.13;100642.66;5052975;28;20079;-71
2021/03/21 03:48:04;;;;;;;8.20;3.83;;;;;;;2.87;60.38;100635.72;5052951;28;20167;-71
2021/03/21 03:50:46;;;;;;;7.13;3.42;;;;;;;2.90;60.78;100639.28;5045935;28;20131;-71
2021/03/21 03:53:38;;;;;;;8.50;3.88;;;;;;;2.92;60.96;100637.59;5045059;28;20392;-71
2021/03/21 03:56:13;;;;;;;7.53;3.75;;;;;;;2.90;61.25;100627.97;5052569;28;20071;-71
2021/03/21 03:58:48;;;;;;;7.00;3.50;;;;;;;2.87;62.22;100626.16;5052759;28;20032;-71
2021/03/21 04:01:15;;;;;;;6.50;3.65;;;;;;;2.93;62.09;100618.50;5045005;28;20033;-71
2021/03/21 04:03:46;;;;;;;5.72;3.22;;;;;;;2.92;62.45;100611.53;5052629;28;20051;-71
2021/03/21 04:06:19;;;;;;;8.75;4.43;;;;;;;2.95;62.78;100621.16;5044418;28;20041;-71
2021/03/21 04:09:00;;;;;;;8.52;3.92;;;;;;;3.00;63.53;100610.00;5052652;28;20130;-71
2021/03/21 04:11:54;;;;;;;7.28;4.13;;;;;;;2.95;63.63;100595.97;5045951;28;20400;-71
2021/03/21 04:14:38;;;;;;;6.90;4.40;;;;;;;3.03;63.87;100602.25;5045709;28;20425;-71
2021/03/21 04:17:14;;;;;;;6.85;4.18;;;;;;;2.98;64.32;100596.03;5052199;28;20044;-71
2021/03/21 04:19:47;;;;;;;11.77;4.28;;;;;;;3.03;64.67;100604.84;5052310;28;20087;-71
2021/03/21 04:22:18;;;;;;;10.07;4.60;;;;;;;3.11;64.81;100596.34;5044630;28;20174;-71
2021/03/21 04:24:51;;;;;;;8.65;4.63;;;;;;;3.12;65.39;100588.59;5052224;28;20116;-71
2021/03/21 04:27:23;;;;;;;9.52;4.32;;;;;;;3.09;65.90;100593.69;5052016;28;20044;-71
2021/03/21 04:30:06;;;;;;;7.85;5.13;;;;;;;3.04;66.95;100591.00;5052078;28;20166;-71
2021/03/21 04:32:39;;;;;;;9.48;5.47;;;;;;;2.98;67.06;100590.81;5052205;28;20068;-71
2021/03/21 04:35:12;;;;;;;9.43;5.65;;;;;;;2.94;67.76;100583.78;5051811;28;20037;-71
2021/03/21 04:37:41;;;;;;;8.68;4.93;;;;;;;2.86;68.05;100580.09;5052040;28;20048;-71
2021/03/21 04:40:08;;;;;;;10.18;5.30;;;;;;;2.80;68.72;100574.72;5049914;28;20054;-71
2021/03/21 04:42:45;;;;;;;10.38;6.03;;;;;;;2.77;69.64;100577.25;5051848;28;20411;-71
2021/03/21 04:45:22;;;;;;;9.05;5.53;;;;;;;2.76;70.58;100575.50;5043598;28;20089;-71
2021/03/21 04:48:04;;;;;;;13.25;6.20;;;;;;;2.76;70.28;100558.13;5052010;28;20040;-71
2021/03/21 04:50:31;;;;;;;9.80;6.10;;;;;;;2.83;69.88;100564.38;5051655;28;20060;-71
2021/03/21 04:53:28;;;;;;;11.35;6.45;;;;;;;2.80;70.11;100559.06;5050870;28;20044;-71
2021/03/21 04:55:59;;;;;;;10.55;6.53;;;;;;;2.80;70.35;100559.06;5051513;28;20029;-71
2021/03/21 04:58:32;;;;;;;9.50;6.85;;;;;;;2.84;71.07;100556.59;5051607;28;20419;-71
2021/03/21 05:01:05;;;;;;;11.27;6.07;;;;;;;2.84;70.67;100567.00;5051586;28;20127;-71
2021/03/21 05:03:37;;;;;;;9.63;6.57;;;;;;;2.82;70.84;100562.59;5051564;28;20048;-71
2021/03/21 05:06:07;;;;;;;;;;;;;;;2.77;70.69;100565.09;5051686;28;20037;-71
2021/03/21 05:08:44;;;;;;;12.20;6.85;;;;;;;2.85;70.68;100554.84;5051462;28;19955;-71
2021/03/21 05:11:10;;;;;;;10.35;6.63;;;;;;;2.83;71.05;100552.22;5043304;28;20376;-71
2021/03/21 05:13:43;;;;;;;10.55;7.55;;;;;;;2.85;71.65;100553.13;5050173;28;20503;-71
2021/03/21 05:16:25;;;;;;;10.65;6.88;;;;;;;2.89;71.78;100554.09;5051196;28;20037;-71
2021/03/21 05:19:05;;;;;;;12.20;7.22;;;;;;;2.88;71.73;100547.09;5051323;28;20037;-71
2021/03/21 05:21:48;;;;;;;11.60;7.47;;;;;;;2.91;72.11;100555.03;5051353;28;20036;-71
2021/03/21 05:24:23;;;;;;;11.82;7.68;;;;;;;2.95;72.26;100548.16;5043671;28;20041;-71
2021/03/21 05:27:08;;;;;;;11.63;7.88;;;;;;;2.95;73.18;100533.41;5050889;28;20037;-71
2021/03/21 05:29:52;;;;;;;11.02;8.02;;;;;;;2.85;74.11;100540.09;5051343;28;20454;-70
2021/03/21 05:32:19;;;;;;;12.88;8.82;;;;;;;2.87;74.37;100537.53;5044126;28;20029;-71
2021/03/21 05:34:47;;;;;;;12.38;8.57;;;;;;;2.85;75.16;100539.22;5041644;28;20036;-71
2021/03/21 05:37:26;;;;;;;12.63;9.40;;;;;;;2.76;75.52;100531.19;5050871;28;20040;-71
2021/03/21 05:40:02;;;;;;;12.60;8.65;;;;;;;2.77;75.77;100522.50;5051025;28;20032;-70
2021/03/21 05:43:09;;;;;;;13.15;8.88;;;;;;;2.76;75.65;100521.63;5051028;28;20037;-71
2021/03/21 05:46:13;;;;;;;15.48;8.63;;;;;;;2.79;76.45;100515.63;5045978;28;20412;-71
2021/03/21 05:49:16;;;;;;;15.00;8.88;;;;;;;2.84;76.49;100514.00;5046644;28;20036;-71
2021/03/21 05:52:00;;;;;;;12.13;8.73;;;;;;;2.85;76.76;100506.22;5067926;23;20057;-68
2021/03/21 05:54:38;;;;;;;14.55;9.95;;;;;;;2.82;77.51;100515.69;5039236;28;20048;-68
2021/03/21 05:57:42;;;;;;;14.13;10.35;;;;;;;2.77;78.17;100510.34;5041678;28;20040;-68
2021/03/21 06:00:45;;;;;;;18.13;10.75;;;;;;;2.80;78.39;100518.28;5039551;28;20072;-68
2021/03/21 06:03:31;;;;;;;15.93;11.52;;;;;;;2.72;79.69;100500.66;5027562;28;20033;-68
2021/03/21 06:06:15;;;;;;;17.30;11.00;;;;;;;2.72;80.69;100501.53;5024944;28;20044;-68
2021/03/21 06:08:40;;;;;;;17.88;11.82;;;;;;;2.69;81.14;100503.19;5026763;28;20044;-67
2021/03/21 06:11:24;;;;;;;18.83;12.20;;;;;;;2.67;81.48;100503.13;5025347;28;20038;-68
2021/03/21 06:14:08;;;;;;;18.67;12.55;;;;;;;2.65;82.00;100510.06;5023860;28;20073;-67
2021/03/21 06:17:00;;;;;;;16.80;12.32;;;;;;;2.68;82.03;100506.66;5026282;28;20041;-68
2021/03/21 06:19:56;;;;;;;20.98;14.30;;;;;;;2.67;82.86;100504.88;5029068;28;20069;-68
2021/03/21 06:22:24;;;;;;;23.70;13.20;;;;;;;2.67;82.93;100502.25;5026408;28;20404;-68
2021/03/21 06:25:00;;;;;;;18.02;12.95;;;;;;;2.67;83.21;100499.66;5025755;28;20502;-68
2021/03/21 06:27:55;;;;;;;24.73;13.07;;;;;;;2.75;82.59;100492.91;5022906;28;20041;-67
2021/03/21 06:30:49;;;;;;;16.63;11.32;;;;;;;2.88;81.42;100494.09;5009823;28;20042;-67
2021/03/21 06:33:51;;;;;;;19.75;12.25;;;;;;;2.84;82.13;100490.56;5022586;28;20467;-68
2021/03/21 06:36:38;;;;;;;17.02;12.43;;;;;;;2.89;82.17;100486.31;5025963;28;20120;-68
2021/03/21 06:39:23;;;;;;;16.80;11.10;;;;;;;2.97;81.52;100481.31;5023517;28;20060;-68
2021/03/21 06:42:00;;;;;;;17.67;13.07;;;;;;;2.97;82.40;100484.78;5018584;28;20480;-68
2021/03/21 06:44:42;;;;;;;18.23;12.60;;;;;;;3.05;82.06;100491.06;5022650;28;20037;-68
2021/03/21 06:47:20;;;;;;;18.17;12.02;;;;;;;3.00;82.22;100477.03;5025636;28;20033;-68
2021/03/21 06:50:17;;;;;;;15.52;11.82;;;;;;;3.11;81.77;100495.53;5025753;28;20037;-68
2021/03/21 06:52:55;;;;;;;15.95;12.43;;;;;;;3.05;82.94;100484.97;5022568;28;20038;-68
2021/03/21 06:55:38;;;;;;;18.15;12.35;;;;;;;3.14;82.96;100481.69;5025719;28;20502;-68
2021/03/21 06:58:28;;;;;;;22.42;14.20;;;;;;;3.14;82.85;100471.25;5023226;28;20570;-68
2021/03/21 07:01:00;;;;;;;20.20;13.75;;;;;;;3.12;83.63;100468.63;5023437;28;20045;-68
2021/03/21 07:03:44;;;;;;;;;;;;;;;3.20;82.84;100455.75;5024889;28;20450;-68
2021/03/21 07:06:31;;;;;;;18.13;12.60;;;;;;;3.21;83.83;100457.50;5022016;28;20312;-68
2021/03/21 07:09:07;;;;;;;21.30;14.20;;;;;;;3.25;83.22;100454.13;5023957;28;20507;-67
2021/03/21 07:12:07;;;;;;;18.85;13.07;;;;;;;3.31;83.20;100448.19;5025421;28;20068;-67
2021/03/21 07:14:35;;;;;;;19.30;13.60;;;;;;;3.40;83.26;100441.41;5022000;28;20037;-68
2021/03/21 07:17:19;;;;;;;20.23;13.88;;;;;;;3.37;82.84;100454.38;5023551;28;20416;-67
2021/03/21 07:20:22;;;;;;;18.15;12.88;;;;;;;3.32;83.30;100450.78;5025394;28;20128;-68
2021/03/21 07:23:23;;;;;;;15.75;12.30;;;;;;;3.43;82.87;100444.09;5022333;28;20041;-68
2021/03/21 07:26:00;;;;;;;21.27;12.60;;;;;;;3.48;82.79;100441.56;5024497;28;20044;-68
2021/03/21 07:28:52;;;;;;;15.18;11.50;;;;;;;3.57;82.68;100438.28;5021831;28;20497;-67
2021/03/21 07:31:56;;;;;;;16.88;12.13;;;;;;;3.58;82.49;100433.09;5029064;28;20112;-68
2021/03/21 07:34:46;;;;;;;19.08;13.23;;;;;;;3.68;82.20;100427.22;5017902;28;20057;-67
2021/03/21 07:37:31;;;;;;;18.75;12.63;;;;;;;3.76;82.34;100422.13;5029598;28;20594;-68
2021/03/21 07:40:27;;;;;;;16.20;13.43;;;;;;;3.90;82.03;100425.00;5035247;28;20485;-67
2021/03/21 07:43:11;;;;;;;22.20;14.40;;;;;;;3.91;81.87;100429.41;5021339;28;20038;-68
2021/03/21 07:45:45;;;;;;;18.38;13.13;;;;;;;3.89;82.11;100412.81;5024740;28;20079;-67
2021/03/21 07:48:23;;;;;;;18.02;14.18;;;;;;;3.89;82.15;100408.47;5021576;28;20038;-68
2021/03/21 07:51:06;;;;;;;18.58;13.77;;;;;;;3.92;81.98;100403.31;5021755;28;20037;-68
2021/03/21 07:53:42;;;;;;;18.13;14.05;;;;;;;4.01;82.02;100396.47;5024869;28;20029;-68
2021/03/21 07:56:30;;;;;;;19.55;15.68;;;;;;;3.98;82.14;100402.53;5021440;28;20037;-68
2021/03/21 07:59:01;;;;;;;18.65;13.60;;;;;;;3.96;82.23;100417.31;5022717;28;20381;-68
2021/03/21 08:01:27;;;;;;;19.90;14.10;;;;;;;3.92;82.56;100402.44;5024582;28;20043;-67
2021/03/21 08:04:22;;;;;;;19.98;15.45;;;;;;;4.04;82.91;100399.19;5023420;28;20042;-68
2021/03/21 08:07:13;;;;;;;18.10;14.43;;;;;;;4.06;82.46;100389.63;5021356;28;20088;-67
2021/03/21 08:09:39;;;;;;;20.58;15.75;;;;;;;3.98;83.58;100386.84;5029773;28;20041;-68
2021/03/21 08:12:19;;;;;;;17.05;14.30;;;;;;;4.00;83.28;100390.38;5021589;28;20045;-67
2021/03/21 08:14:46;;;;;;;19.27;15.60;;;;;;;4.01;83.46;100383.44;5021155;28;20045;-67
2021/03/21 08:17:29;;;;;;;24.85;17.15;;;;;;;3.93;84.22;100378.97;5024134;28;20033;-67
2021/03/21 08:20:02;;;;;;;23.13;14.82;;;;;;;3.97;84.51;100373.78;5022945;28;20031;-67
2021/03/21 08:22:31;;;;;;;21.48;16.23;;;;;;;4.05;84.42;100366.97;5020651;28;20048;-67
2021/03/21 08:25:02;;;;;;;21.75;15.82;;;;;;;4.13;84.29;100365.38;5022351;28;20037;-68
2021/03/21 08:27:31;;;;;;;23.42;15.95;;;;;;;4.14;83.91;100367.16;5024186;28;20450;-67
2021/03/21 08:30:02;;;;;;;21.75;14.80;;;;;;;4.24;84.29;100366.41;5022520;28;20404;-67
2021/03/21 08:32:29;;;;;;;20.08;15.43;;;;;;;4.31;84.08;100356.97;5020624;28;20092;-67
2021/03/21 08:34:55;;;;;;;23.55;17.17;;;;;;;4.28;84.53;100360.41;5021802;28;20037;-68
2021/03/21 08:37:32;;;;;;;19.08;13.93;;;;;;;4.37;84.08;100365.78;5023807;28;20037;-68
2021/03/21 08:40:09;;;;;;;19.20;13.88;;;;;;;4.41;83.96;100355.41;5022047;28;20041;-67
2021/03/21 08:42:38;;;;;;;19.35;13.32;;;;;;;4.34;84.44;100355.28;5020399;28;20507;-67
2021/03/21 08:45:12;;;;;;;19.65;13.38;;;;;;;4.34;84.87;100352.66;5022835;28;20049;-67
2021/03/21 08:47:38;;;;;;;17.88;13.35;;;;;;;4.39;84.32;100358.84;5023774;28;20053;-67
2021/03/21 08:50:25;;;;;;;20.55;14.70;;;;;;;4.43;84.64;100357.19;5021255;28;20037;-67
2021/03/21 08:52:51;;;;;;;17.35;12.68;;;;;;;4.36;84.77;100366.63;5021038;28;20030;-68
2021/03/21 08:55:28;;;;;;;18.00;13.20;;;;;;;4.37;84.86;100344.00;5023365;28;20040;-67
2021/03/21 08:57:53;;;;;;;17.60;13.82;;;;;;;4.43;84.53;100343.22;5022387;28;20057;-67
2021/03/21 09:00:18;;;;;;;17.85;13.30;;;;;;;4.43;85.25;100340.59;5020126;28;20080;-67
2021/03/21 09:02:44;;;;;;;17.05;12.45;;;;;;;4.46;85.28;100340.66;5020051;28;20109;-68
2021/03/21 09:05:12;;;;;;;17.60;13.50;;;;;;;4.43;85.59;100331.03;5020020;28;20030;-67
2021/03/21 09:08:03;;;;;;;16.52;11.75;;;;;;;4.47;85.12;100324.13;5020138;28;20135;-67
2021/03/21 09:10:50;;;;;;;17.52;13.10;;;;;;;4.53;85.51;100330.34;5019642;28;20077;-67
2021/03/21 09:13:22;;;;;;;15.32;12.10;;;;;;;4.60;85.64;100337.38;5027349;28;20026;-67
2021/03/21 09:15:53;;;;;;;15.30;12.27;;;;;;;4.66;85.16;100320.91;5020173;28;20038;-67
2021/03/21 09:18:19;;;;;;;15.05;11.82;;;;;;;4.66;85.92;100320.03;5023315;28;20030;-67
2021/03/21 09:21:03;;;;;;;15.63;11.80;;;;;;;4.84;85.71;100310.72;5023158;28;20040;-67
2021/03/21 09:23:43;;;;;;;13.77;11.10;;;;;;;5.02;85.24;100309.19;5035069;28;20133;-67
2021/03/21 09:26:11;;;;;;;12.45;9.80;;;;;;;5.22;84.32;100312.94;5022893;28;20033;-67
2021/03/21 09:28:38;;;;;;;12.75;10.38;;;;;;;5.37;84.23;100304.41;5021925;28;20132;-67
2021/03/21 09:31:09;;;;;;;10.65;8.68;;;;;;;5.44;84.15;100308.84;5020400;28;20037;-67
2021/03/21 09:33:41;;;;;;;12.25;9.02;;;;;;;5.64;83.63;100306.44;5019751;28;20088;-67
2021/03/21 09:36:36;;;;;;;10.82;8.48;;;;;;;5.80;83.30;100306.59;5022420;28;20103;-67
2021/03/21 09:39:13;;;;;;;10.70;8.07;;;;;;;5.66;83.08;100315.19;5024346;28;20454;-67
2021/03/21 09:41:39;;;;;;;9.88;7.10;;;;;;;5.65;83.02;100305.56;5032392;28;20064;-67
2021/03/21 09:44:18;;;;;;;10.82;7.32;;;;;;;5.62;83.10;100323.88;5020302;28;20073;-67
2021/03/21 09:47:14;;;;;;;10.10;7.68;;;;;;;5.84;82.74;100310.97;5019361;28;20069;-67
2021/03/21 09:50:01;;;;;;;9.55;7.32;;;;;;;6.01;82.24;100303.31;5023255;28;20384;-67
2021/03/21 09:52:38;;;;;;;9.18;6.65;;;;;;;5.86;81.83;100319.75;5034682;28;20403;-67
2021/03/21 09:55:29;;;;;;;8.13;6.47;;;;;;;5.97;81.86;100314.63;5021839;28;20139;-67
2021/03/21 09:58:31;;;;;;;8.52;6.15;;;;;;;5.95;81.90;100305.88;5021635;28;20037;-67
2021/03/21 10:01:39;;;;;;;10.23;6.93;;;;;;;6.03;81.24;100326.06;5021016;28;20048;-67
2021/03/21 10:04:19;;;;;;;9.32;5.93;;;;;;;6.05;81.43;100300.75;5026404;28;20303;-67
2021/03/21 10:06:47;;;;;;;8.38;6.15;;;;;;;6.02;80.96;100313.81;5019276;28;20045;-67
2021/03/21 10:09:16;;;;;;;7.35;5.57;;;;;;;6.11;80.32;100305.16;5022734;28;20038;-67
2021/03/21 10:11:46;;;;;;;9.73;5.47;;;;;;;6.03;80.41;100320.81;5022642;28;20045;-67
2021/03/21 10:14:26;;;;;;;6.55;4.78;;;;;;;6.02;80.15;100308.56;5027398;28;20057;-67
2021/03/21 10:16:53;;;;;;;6.47;4.60;;;;;;;6.02;80.40;100316.41;5019957;28;20091;-67
2021/03/21 10:19:40;;;;;;;8.70;5.25;;;;;;;6.06;80.69;100322.59;5023312;28;20381;-67
2021/03/21 10:22:17;;;;;;;7.63;6.10;;;;;;;6.13;80.19;100317.41;5021825;28;20565;-67
2021/03/21 10:24:44;;;;;;;7.78;5.53;;;;;;;6.47;79.75;100314.16;5022608;28;20112;-67
2021/03/21 10:27:21;;;;;;;7.15;4.63;;;;;;;6.64;79.25;100301.16;5019111;28;20042;-67
2021/03/21 10:30:07;;;;;;;6.45;4.43;;;;;;;6.99;78.38;100307.47;5019452;28;20038;-67
2021/03/21 10:32:35;;;;;;;5.20;3.92;;;;;;;7.27;76.96;100310.22;5037630;28;20037;-67
2021/03/21 10:35:02;;;;;;;5.13;3.10;;;;;;;7.42;75.00;100302.41;5020176;28;20042;-67
2021/03/21 10:37:48;;;;;;;5.65;3.00;;;;;;;7.75;73.80;100294.59;5019249;28;20034;-67
2021/03/21 10:40:39;;;;;;;5.07;2.20;;;;;;;7.84;72.29;100303.38;5026681;28;20120;-67
2021/03/21 10:43:12;;;;;;;3.65;1.52;;;;;;;7.55;72.90;100316.44;5021601;28;20098;-67
2021/03/21 10:45:37;;;;;;;4.43;1.60;;;;;;;7.27;73.33;100320.72;5022273;28;20029;-67
2021/03/21 10:48:13;;;;;;;4.75;1.42;;;;;;;6.90;73.76;100303.94;5019951;28;20045;-67
2021/03/21 10:50:45;;;;;;;4.88;2.15;;;;;;;6.51;76.56;100323.81;5019498;28;20041;-67
2021/03/21 10:53:21;;;;;;;4.32;1.77;;;;;;;6.39;76.86;100328.94;5022551;28;20076;-67
2021/03/21 10:56:19;;;;;;;5.38;1.95;;;;;;;6.22;77.54;100336.69;5022434;28;20554;-67
2021/03/21 10:59:14;;;;;;;4.88;2.03;;;;;;;6.10;77.85;100359.31;5025973;28;20041;-67
2021/03/21 11:01:42;;;;;;;5.60;2.10;;;;;;;6.09;77.94;100347.06;5022427;28;20044;-67
2021/03/21 11:04:22;;;;;;;6.65;2.30;;;;;;;6.02;76.63;100329.53;5025200;28;20041;-67
2021/03/21 11:06:54;;;;;;;5.22;2.25;;;;;;;6.10;76.80;100332.22;5025134;28;20033;-67
2021/03/21 11:09:24;;;;;;;8.45;2.22;;;;;;;6.20;75.59;100377.72;5022180;28;20046;-67
2021/03/21 11:11:50;;;;;;;6.32;2.10;;;;;;;6.25;74.93;100347.19;5022728;28;20041;-67
2021/03/21 11:14:24;;;;;;;8.43;2.10;;;;;;;6.32;74.61;100377.84;5025388;28;20484;-67
2021/03/21 11:16:58;;;;;;;9.07;2.47;;;;;;;6.32;73.13;100343.78;5024772;28;20116;-67
2021/03/21 11:19:27;;;;;;;8.38;2.28;;;;;;;6.39;71.83;100342.94;5022051;28;20070;-67
2021/03/21 11:21:53;;;;;;;9.63;2.13;;;;;;;6.52;70.85;100362.25;5022930;28;20389;-67
2021/03/21 11:24:21;;;;;;;8.63;2.30;;;;;;;6.54;68.72;100340.44;5025246;28;20041;-67
2021/03/21 11:26:47;;;;;;;13.07;2.28;;;;;;;6.53;68.68;100354.41;5024779;28;20044;-67
2021/03/21 11:29:35;;;;;;;11.05;2.40;;;;;;;6.45;66.63;100329.91;5021912;28;20033;-67
2021/03/21 11:32:14;;;;;;;10.45;2.53;;;;;;;6.47;66.62;100343.91;5023940;28;20034;-67
2021/03/21 11:34:40;;;;;;;10.45;3.00;;;;;;;6.53;65.97;100337.81;5025231;28;20037;-67
2021/03/21 11:37:05;;;;;;;9.40;1.88;;;;;;;6.73;65.53;100340.56;5022037;28;20163;-67
2021/03/21 11:39:58;;;;;;;11.52;2.08;;;;;;;6.88;63.97;100343.28;5031637;28;20124;-67
2021/03/21 11:42:25;;;;;;;12.13;2.53;;;;;;;7.03;63.39;100346.00;5021579;28;20038;-67
2021/03/21 11:45:20;;;;;;;12.70;2.40;;;;;;;7.18;61.50;100346.94;5022227;28;20100;-67
2021/03/21 11:47:49;;;;;;;9.82;2.10;;;;;;;7.19;61.05;100351.31;5025111;28;20037;-67
2021/03/21 11:50:27;;;;;;;17.95;3.15;;;;;;;7.13;61.70;100359.19;5021252;28;20044;-67
2021/03/21 11:52:53;;;;;;;19.38;4.55;;;;;;;7.01;63.29;100357.34;5022382;28;20045;-67
2021/03/21 11:55:21;;;;;;;16.70;4.65;;;;;;;6.70;64.07;100372.88;5024615;28;20420;-67
2021/03/21 11:58:02;;;;;;;13.20;3.50;;;;;;;6.52;64.68;100362.25;5024517;28;20041;-67
2021/03/21 12:00:31;;;;;;;17.88;4.20;;;;;;;6.40;64.14;100378.78;5021272;28;20397;-67
2021/03/21 12:03:17;;;;;;;15.48;3.70;;;;;;;6.35;64.96;100390.97;5022448;28;20610;-67
2021/03/21 12:05:44;;;;;;;17.70;3.65;;;;;;;6.47;63.98;100374.44;5024396;28;20052;-67
2021/03/21 12:08:30;;;;;;;16.02;3.83;;;;;;;6.73;63.19;100377.28;5021439;28;20034;-67
2021/03/21 12:10:56;;;;;;;16.30;3.88;;;;;;;7.00;62.79;100366.97;5022367;28;20037;-67